sensor_id;sensor_type;location;lat;lon;timestamp;P1;durP1;ratioP1;P2;durP2;ratioP2
37781;SDS011;23621;50.878;4.584;2023-04-12T00:02:17;2.05;;;1.88;;
37781;SDS011;23621;50.878;4.584;2023-04-12T00:04:45;2.20;;;1.35;;
37781;SDS011;23621;50.878;4.584;2023-04-12T00:07:21;3.67;;;1.45;;
37781;SDS011;23621;50.878;4.584;2023-04-12T00:09:52;2.17;;;1.27;;
37781;SDS011;23621;50.878;4.584;2023-04-12T00:12:19;3.30;;;1.48;;
37781;SDS011;23621;50.878;4.584;2023-04-12T00:14:46;9.75;;;1.55;;
37781;SDS011;23621;50.878;4.584;2023-04-12T00:17:13;1.85;;;1.40;;
37781;SDS011;23621;50.878;4.584;2023-04-12T00:19:40;1.30;;;1.20;;
37781;SDS011;23621;50.878;4.584;2023-04-12T00:22:08;1.90;;;1.25;;
37781;SDS011;23621;50.878;4.584;2023-04-12T00:24:38;3.45;;;1.60;;
37781;SDS011;23621;50.878;4.584;2023-04-12T00:27:06;1.48;;;1.38;;
37781;SDS011;23621;50.878;4.584;2023-04-12T00:29:34;2.53;;;1.20;;
37781;SDS011;23621;50.878;4.584;2023-04-12T00:32:01;2.40;;;1.30;;
37781;SDS011;23621;50.878;4.584;2023-04-12T00:34:30;1.42;;;1.33;;
37781;SDS011;23621;50.878;4.584;2023-04-12T00:36:58;1.40;;;1.30;;
37781;SDS011;23621;50.878;4.584;2023-04-12T00:39:26;1.92;;;1.33;;
37781;SDS011;23621;50.878;4.584;2023-04-12T00:41:53;1.30;;;1.20;;
37781;SDS011;23621;50.878;4.584;2023-04-12T00:44:22;2.15;;;1.00;;
37781;SDS011;23621;50.878;4.584;2023-04-12T00:46:49;1.73;;;1.33;;
37781;SDS011;23621;50.878;4.584;2023-04-12T00:49:16;1.63;;;1.40;;
37781;SDS011;23621;50.878;4.584;2023-04-12T00:51:43;1.20;;;1.10;;
37781;SDS011;23621;50.878;4.584;2023-04-12T00:54:11;2.05;;;1.27;;
37781;SDS011;23621;50.878;4.584;2023-04-12T00:56:39;3.40;;;1.40;;
37781;SDS011;23621;50.878;4.584;2023-04-12T00:59:07;1.10;;;1.10;;
37781;SDS011;23621;50.878;4.584;2023-04-12T01:01:34;2.45;;;1.25;;
37781;SDS011;23621;50.878;4.584;2023-04-12T01:04:03;2.15;;;1.40;;
37781;SDS011;23621;50.878;4.584;2023-04-12T01:06:33;1.02;;;0.98;;
37781;SDS011;23621;50.878;4.584;2023-04-12T01:09:42;2.00;;;1.40;;
37781;SDS011;23621;50.878;4.584;2023-04-12T01:15:10;2.03;;;1.38;;
37781;SDS011;23621;50.878;4.584;2023-04-12T01:17:43;1.52;;;1.33;;
37781;SDS011;23621;50.878;4.584;2023-04-12T01:20:16;3.08;;;1.25;;
37781;SDS011;23621;50.878;4.584;2023-04-12T01:28:19;1.20;;;1.10;;
37781;SDS011;23621;50.878;4.584;2023-04-12T01:30:53;2.00;;;1.40;;
37781;SDS011;23621;50.878;4.584;2023-04-12T01:33:20;1.65;;;1.48;;
37781;SDS011;23621;50.878;4.584;2023-04-12T01:35:48;1.48;;;1.20;;
37781;SDS011;23621;50.878;4.584;2023-04-12T01:38:18;1.20;;;1.10;;
37781;SDS011;23621;50.878;4.584;2023-04-12T01:40:45;4.13;;;1.40;;
37781;SDS011;23621;50.878;4.584;2023-04-12T01:43:14;1.77;;;1.20;;
37781;SDS011;23621;50.878;4.584;2023-04-12T01:45:41;1.77;;;1.30;;
37781;SDS011;23621;50.878;4.584;2023-04-12T01:48:09;2.08;;;1.10;;
37781;SDS011;23621;50.878;4.584;2023-04-12T01:50:59;2.00;;;1.40;;
37781;SDS011;23621;50.878;4.584;2023-04-12T01:56:20;1.63;;;1.52;;
37781;SDS011;23621;50.878;4.584;2023-04-12T01:58:50;3.72;;;1.40;;
37781;SDS011;23621;50.878;4.584;2023-04-12T02:01:18;4.38;;;1.33;;
37781;SDS011;23621;50.878;4.584;2023-04-12T02:03:47;2.78;;;1.60;;
37781;SDS011;23621;50.878;4.584;2023-04-12T02:06:19;2.55;;;1.50;;
37781;SDS011;23621;50.878;4.584;2023-04-12T02:08:46;2.60;;;1.40;;
37781;SDS011;23621;50.878;4.584;2023-04-12T02:11:14;2.42;;;1.38;;
37781;SDS011;23621;50.878;4.584;2023-04-12T02:13:41;3.65;;;1.08;;
37781;SDS011;23621;50.878;4.584;2023-04-12T02:16:08;2.88;;;1.30;;
37781;SDS011;23621;50.878;4.584;2023-04-12T02:18:36;3.45;;;1.45;;
37781;SDS011;23621;50.878;4.584;2023-04-12T02:21:03;1.30;;;1.20;;
37781;SDS011;23621;50.878;4.584;2023-04-12T02:23:30;2.30;;;1.40;;
37781;SDS011;23621;50.878;4.584;2023-04-12T02:25:57;3.95;;;1.40;;
37781;SDS011;23621;50.878;4.584;2023-04-12T02:28:24;2.15;;;1.48;;
37781;SDS011;23621;50.878;4.584;2023-04-12T02:30:51;2.40;;;1.88;;
37781;SDS011;23621;50.878;4.584;2023-04-12T02:33:18;3.53;;;1.52;;
37781;SDS011;23621;50.878;4.584;2023-04-12T02:35:53;1.50;;;1.30;;
37781;SDS011;23621;50.878;4.584;2023-04-12T02:38:22;1.35;;;1.25;;
37781;SDS011;23621;50.878;4.584;2023-04-12T02:40:49;2.22;;;1.40;;
37781;SDS011;23621;50.878;4.584;2023-04-12T02:43:16;2.10;;;1.50;;
37781;SDS011;23621;50.878;4.584;2023-04-12T02:45:43;2.45;;;1.50;;
37781;SDS011;23621;50.878;4.584;2023-04-12T02:48:10;1.42;;;1.20;;
37781;SDS011;23621;50.878;4.584;2023-04-12T02:50:37;2.47;;;1.50;;
37781;SDS011;23621;50.878;4.584;2023-04-12T02:53:05;1.40;;;1.30;;
37781;SDS011;23621;50.878;4.584;2023-04-12T02:55:32;2.10;;;1.42;;
37781;SDS011;23621;50.878;4.584;2023-04-12T02:57:59;2.63;;;1.52;;
37781;SDS011;23621;50.878;4.584;2023-04-12T03:00:26;1.42;;;1.08;;
37781;SDS011;23621;50.878;4.584;2023-04-12T03:02:53;1.55;;;1.20;;
37781;SDS011;23621;50.878;4.584;2023-04-12T03:05:21;5.13;;;1.48;;
37781;SDS011;23621;50.878;4.584;2023-04-12T03:07:48;1.60;;;1.38;;
37781;SDS011;23621;50.878;4.584;2023-04-12T03:10:15;2.38;;;1.40;;
37781;SDS011;23621;50.878;4.584;2023-04-12T03:12:42;2.25;;;1.30;;
37781;SDS011;23621;50.878;4.584;2023-04-12T03:15:09;2.70;;;1.40;;
37781;SDS011;23621;50.878;4.584;2023-04-12T03:17:36;1.98;;;1.20;;
37781;SDS011;23621;50.878;4.584;2023-04-12T03:20:04;2.20;;;1.30;;
37781;SDS011;23621;50.878;4.584;2023-04-12T03:22:35;1.65;;;1.55;;
37781;SDS011;23621;50.878;4.584;2023-04-12T03:25:03;1.42;;;1.30;;
37781;SDS011;23621;50.878;4.584;2023-04-12T03:27:31;1.63;;;1.25;;
37781;SDS011;23621;50.878;4.584;2023-04-12T03:29:58;2.53;;;1.33;;
37781;SDS011;23621;50.878;4.584;2023-04-12T03:32:25;2.50;;;1.50;;
37781;SDS011;23621;50.878;4.584;2023-04-12T03:34:53;1.38;;;1.27;;
37781;SDS011;23621;50.878;4.584;2023-04-12T03:37:20;4.03;;;1.20;;
37781;SDS011;23621;50.878;4.584;2023-04-12T03:39:47;2.35;;;1.40;;
37781;SDS011;23621;50.878;4.584;2023-04-12T03:42:14;2.00;;;1.17;;
37781;SDS011;23621;50.878;4.584;2023-04-12T03:44:58;2.33;;;1.42;;
37781;SDS011;23621;50.878;4.584;2023-04-12T03:47:25;1.33;;;1.00;;
37781;SDS011;23621;50.878;4.584;2023-04-12T03:50:01;2.65;;;1.30;;
37781;SDS011;23621;50.878;4.584;2023-04-12T03:52:38;1.42;;;1.33;;
37781;SDS011;23621;50.878;4.584;2023-04-12T03:55:05;1.40;;;1.38;;
37781;SDS011;23621;50.878;4.584;2023-04-12T03:57:33;1.38;;;1.27;;
37781;SDS011;23621;50.878;4.584;2023-04-12T04:00:00;1.83;;;1.25;;
37781;SDS011;23621;50.878;4.584;2023-04-12T04:02:28;1.25;;;1.13;;
37781;SDS011;23621;50.878;4.584;2023-04-12T04:04:55;2.72;;;1.20;;
37781;SDS011;23621;50.878;4.584;2023-04-12T04:07:22;1.10;;;1.10;;
37781;SDS011;23621;50.878;4.584;2023-04-12T04:09:49;2.53;;;1.30;;
37781;SDS011;23621;50.878;4.584;2023-04-12T04:12:16;1.42;;;1.30;;
37781;SDS011;23621;50.878;4.584;2023-04-12T04:14:43;1.77;;;1.20;;
37781;SDS011;23621;50.878;4.584;2023-04-12T04:17:10;1.02;;;1.02;;
37781;SDS011;23621;50.878;4.584;2023-04-12T04:19:38;3.67;;;1.52;;
37781;SDS011;23621;50.878;4.584;2023-04-12T04:22:05;1.85;;;1.40;;
37781;SDS011;23621;50.878;4.584;2023-04-12T04:24:32;1.70;;;1.05;;
37781;SDS011;23621;50.878;4.584;2023-04-12T04:26:59;1.65;;;1.02;;
37781;SDS011;23621;50.878;4.584;2023-04-12T04:29:26;1.40;;;1.30;;
37781;SDS011;23621;50.878;4.584;2023-04-12T04:31:54;1.17;;;0.95;;
37781;SDS011;23621;50.878;4.584;2023-04-12T04:34:22;2.25;;;1.40;;
37781;SDS011;23621;50.878;4.584;2023-04-12T04:36:50;1.17;;;0.90;;
37781;SDS011;23621;50.878;4.584;2023-04-12T04:39:18;1.15;;;1.10;;
37781;SDS011;23621;50.878;4.584;2023-04-12T04:41:45;2.00;;;1.17;;
37781;SDS011;23621;50.878;4.584;2023-04-12T04:44:12;1.23;;;1.23;;
37781;SDS011;23621;50.878;4.584;2023-04-12T04:46:39;1.40;;;1.30;;
37781;SDS011;23621;50.878;4.584;2023-04-12T04:49:07;1.40;;;1.30;;
37781;SDS011;23621;50.878;4.584;2023-04-12T04:51:34;1.20;;;1.10;;
37781;SDS011;23621;50.878;4.584;2023-04-12T04:54:02;1.20;;;1.08;;
37781;SDS011;23621;50.878;4.584;2023-04-12T04:56:29;1.23;;;1.13;;
37781;SDS011;23621;50.878;4.584;2023-04-12T04:58:56;1.15;;;1.05;;
37781;SDS011;23621;50.878;4.584;2023-04-12T05:01:23;1.63;;;1.38;;
37781;SDS011;23621;50.878;4.584;2023-04-12T05:03:54;1.33;;;1.23;;
37781;SDS011;23621;50.878;4.584;2023-04-12T05:06:21;1.48;;;1.38;;
37781;SDS011;23621;50.878;4.584;2023-04-12T05:08:49;1.38;;;1.27;;
37781;SDS011;23621;50.878;4.584;2023-04-12T05:11:18;1.40;;;1.30;;
37781;SDS011;23621;50.878;4.584;2023-04-12T05:13:45;3.78;;;1.63;;
37781;SDS011;23621;50.878;4.584;2023-04-12T05:16:12;1.52;;;1.35;;
37781;SDS011;23621;50.878;4.584;2023-04-12T05:18:39;1.65;;;1.55;;
37781;SDS011;23621;50.878;4.584;2023-04-12T05:21:06;1.52;;;1.42;;
37781;SDS011;23621;50.878;4.584;2023-04-12T05:23:34;3.17;;;1.80;;
37781;SDS011;23621;50.878;4.584;2023-04-12T05:26:03;1.80;;;1.70;;
37781;SDS011;23621;50.878;4.584;2023-04-12T05:28:30;2.25;;;1.88;;
37781;SDS011;23621;50.878;4.584;2023-04-12T05:30:57;1.90;;;1.60;;
37781;SDS011;23621;50.878;4.584;2023-04-12T05:33:24;2.63;;;1.60;;
37781;SDS011;23621;50.878;4.584;2023-04-12T05:35:51;1.60;;;1.40;;
37781;SDS011;23621;50.878;4.584;2023-04-12T05:38:18;2.63;;;1.20;;
37781;SDS011;23621;50.878;4.584;2023-04-12T05:40:46;4.43;;;1.40;;
37781;SDS011;23621;50.878;4.584;2023-04-12T05:43:15;1.38;;;1.20;;
37781;SDS011;23621;50.878;4.584;2023-04-12T05:45:43;3.03;;;1.40;;
37781;SDS011;23621;50.878;4.584;2023-04-12T05:48:10;3.20;;;1.50;;
37781;SDS011;23621;50.878;4.584;2023-04-12T05:50:37;2.58;;;1.27;;
37781;SDS011;23621;50.878;4.584;2023-04-12T05:53:04;3.38;;;1.58;;
37781;SDS011;23621;50.878;4.584;2023-04-12T05:55:31;3.03;;;1.70;;
37781;SDS011;23621;50.878;4.584;2023-04-12T05:58:01;3.03;;;1.52;;
37781;SDS011;23621;50.878;4.584;2023-04-12T06:00:28;3.08;;;1.50;;
37781;SDS011;23621;50.878;4.584;2023-04-12T06:02:55;3.33;;;1.60;;
37781;SDS011;23621;50.878;4.584;2023-04-12T06:05:23;4.07;;;1.63;;
37781;SDS011;23621;50.878;4.584;2023-04-12T06:07:51;2.50;;;1.58;;
37781;SDS011;23621;50.878;4.584;2023-04-12T06:10:18;2.30;;;1.60;;
37781;SDS011;23621;50.878;4.584;2023-04-12T06:12:45;3.85;;;1.77;;
37781;SDS011;23621;50.878;4.584;2023-04-12T06:15:13;3.78;;;1.80;;
37781;SDS011;23621;50.878;4.584;2023-04-12T06:17:39;4.78;;;1.70;;
37781;SDS011;23621;50.878;4.584;2023-04-12T06:20:07;3.42;;;2.00;;
37781;SDS011;23621;50.878;4.584;2023-04-12T06:22:35;3.97;;;1.90;;
37781;SDS011;23621;50.878;4.584;2023-04-12T06:25:03;4.22;;;1.65;;
37781;SDS011;23621;50.878;4.584;2023-04-12T06:27:30;2.92;;;2.10;;
37781;SDS011;23621;50.878;4.584;2023-04-12T06:29:57;3.50;;;2.00;;
37781;SDS011;23621;50.878;4.584;2023-04-12T06:32:24;10.65;;;2.53;;
37781;SDS011;23621;50.878;4.584;2023-04-12T06:34:53;4.57;;;2.10;;
37781;SDS011;23621;50.878;4.584;2023-04-12T06:37:20;2.40;;;2.05;;
37781;SDS011;23621;50.878;4.584;2023-04-12T06:39:47;4.22;;;1.90;;
37781;SDS011;23621;50.878;4.584;2023-04-12T06:42:14;5.20;;;2.25;;
37781;SDS011;23621;50.878;4.584;2023-04-12T06:44:42;2.92;;;1.67;;
37781;SDS011;23621;50.878;4.584;2023-04-12T06:47:09;5.60;;;2.10;;
37781;SDS011;23621;50.878;4.584;2023-04-12T06:49:37;3.00;;;2.03;;
37781;SDS011;23621;50.878;4.584;2023-04-12T06:52:04;5.00;;;1.90;;
37781;SDS011;23621;50.878;4.584;2023-04-12T06:54:31;6.57;;;1.95;;
37781;SDS011;23621;50.878;4.584;2023-04-12T06:57:01;3.35;;;1.80;;
37781;SDS011;23621;50.878;4.584;2023-04-12T06:59:28;4.35;;;1.90;;
37781;SDS011;23621;50.878;4.584;2023-04-12T07:01:55;5.05;;;1.85;;
37781;SDS011;23621;50.878;4.584;2023-04-12T07:04:22;5.63;;;2.20;;
37781;SDS011;23621;50.878;4.584;2023-04-12T07:06:49;5.15;;;2.17;;
37781;SDS011;23621;50.878;4.584;2023-04-12T07:09:16;2.75;;;1.70;;
37781;SDS011;23621;50.878;4.584;2023-04-12T07:11:43;4.70;;;1.88;;
37781;SDS011;23621;50.878;4.584;2023-04-12T07:14:10;3.13;;;1.83;;
37781;SDS011;23621;50.878;4.584;2023-04-12T07:16:37;4.03;;;1.90;;
37781;SDS011;23621;50.878;4.584;2023-04-12T07:19:04;3.08;;;1.50;;
37781;SDS011;23621;50.878;4.584;2023-04-12T07:21:32;4.15;;;2.00;;
37781;SDS011;23621;50.878;4.584;2023-04-12T07:23:59;4.85;;;2.10;;
37781;SDS011;23621;50.878;4.584;2023-04-12T07:26:26;5.93;;;1.70;;
37781;SDS011;23621;50.878;4.584;2023-04-12T07:28:53;4.70;;;1.80;;
37781;SDS011;23621;50.878;4.584;2023-04-12T07:31:21;4.60;;;2.22;;
37781;SDS011;23621;50.878;4.584;2023-04-12T07:33:49;3.67;;;2.10;;
37781;SDS011;23621;50.878;4.584;2023-04-12T07:36:16;3.08;;;2.08;;
37781;SDS011;23621;50.878;4.584;2023-04-12T07:38:46;3.53;;;1.80;;
37781;SDS011;23621;50.878;4.584;2023-04-12T07:41:14;3.90;;;1.63;;
37781;SDS011;23621;50.878;4.584;2023-04-12T07:43:41;5.97;;;1.90;;
37781;SDS011;23621;50.878;4.584;2023-04-12T07:46:08;3.92;;;1.95;;
37781;SDS011;23621;50.878;4.584;2023-04-12T07:48:35;3.10;;;1.73;;
37781;SDS011;23621;50.878;4.584;2023-04-12T07:51:02;3.63;;;2.20;;
37781;SDS011;23621;50.878;4.584;2023-04-12T07:53:29;6.10;;;2.47;;
37781;SDS011;23621;50.878;4.584;2023-04-12T07:55:57;4.95;;;1.90;;
37781;SDS011;23621;50.878;4.584;2023-04-12T07:58:24;6.47;;;2.20;;
37781;SDS011;23621;50.878;4.584;2023-04-12T08:00:52;4.50;;;2.22;;
37781;SDS011;23621;50.878;4.584;2023-04-12T08:03:19;4.03;;;2.13;;
37781;SDS011;23621;50.878;4.584;2023-04-12T08:05:46;4.55;;;2.15;;
37781;SDS011;23621;50.878;4.584;2023-04-12T08:08:18;3.60;;;1.85;;
37781;SDS011;23621;50.878;4.584;2023-04-12T08:10:47;5.07;;;2.20;;
37781;SDS011;23621;50.878;4.584;2023-04-12T08:13:15;8.27;;;2.00;;
37781;SDS011;23621;50.878;4.584;2023-04-12T08:15:42;5.68;;;2.25;;
37781;SDS011;23621;50.878;4.584;2023-04-12T08:18:09;3.47;;;2.00;;
37781;SDS011;23621;50.878;4.584;2023-04-12T08:20:36;6.20;;;2.00;;
37781;SDS011;23621;50.878;4.584;2023-04-12T08:23:06;6.78;;;2.20;;
37781;SDS011;23621;50.878;4.584;2023-04-12T08:25:33;4.85;;;2.10;;
37781;SDS011;23621;50.878;4.584;2023-04-12T08:28:00;6.60;;;2.08;;
37781;SDS011;23621;50.878;4.584;2023-04-12T08:30:27;4.55;;;2.00;;
37781;SDS011;23621;50.878;4.584;2023-04-12T08:32:54;6.60;;;2.00;;
37781;SDS011;23621;50.878;4.584;2023-04-12T08:35:22;6.38;;;2.08;;
37781;SDS011;23621;50.878;4.584;2023-04-12T08:37:49;6.60;;;2.35;;
37781;SDS011;23621;50.878;4.584;2023-04-12T08:40:16;7.10;;;2.35;;
37781;SDS011;23621;50.878;4.584;2023-04-12T08:42:43;7.20;;;2.38;;
37781;SDS011;23621;50.878;4.584;2023-04-12T08:45:11;8.18;;;2.85;;
37781;SDS011;23621;50.878;4.584;2023-04-12T08:47:42;6.55;;;2.47;;
37781;SDS011;23621;50.878;4.584;2023-04-12T08:50:11;10.30;;;2.90;;
37781;SDS011;23621;50.878;4.584;2023-04-12T08:52:42;5.57;;;2.35;;
37781;SDS011;23621;50.878;4.584;2023-04-12T08:55:09;8.95;;;2.70;;
37781;SDS011;23621;50.878;4.584;2023-04-12T08:57:39;7.15;;;2.55;;
37781;SDS011;23621;50.878;4.584;2023-04-12T09:00:08;6.82;;;2.53;;
37781;SDS011;23621;50.878;4.584;2023-04-12T09:02:36;8.23;;;2.92;;
37781;SDS011;23621;50.878;4.584;2023-04-12T09:05:04;10.10;;;2.92;;
37781;SDS011;23621;50.878;4.584;2023-04-12T09:07:32;7.78;;;3.55;;
37781;SDS011;23621;50.878;4.584;2023-04-12T09:10:00;7.68;;;2.70;;
37781;SDS011;23621;50.878;4.584;2023-04-12T09:12:27;8.82;;;2.25;;
37781;SDS011;23621;50.878;4.584;2023-04-12T09:17:34;9.23;;;2.90;;
37781;SDS011;23621;50.878;4.584;2023-04-12T09:22:43;12.00;;;2.58;;
37781;SDS011;23621;50.878;4.584;2023-04-12T09:25:12;6.93;;;2.97;;
37781;SDS011;23621;50.878;4.584;2023-04-12T09:30:14;7.13;;;2.40;;
37781;SDS011;23621;50.878;4.584;2023-04-12T09:32:43;6.70;;;2.70;;
37781;SDS011;23621;50.878;4.584;2023-04-12T09:35:11;7.93;;;2.78;;
37781;SDS011;23621;50.878;4.584;2023-04-12T09:37:38;4.85;;;2.50;;
37781;SDS011;23621;50.878;4.584;2023-04-12T09:40:06;7.18;;;2.95;;
37781;SDS011;23621;50.878;4.584;2023-04-12T09:42:35;7.80;;;2.65;;
37781;SDS011;23621;50.878;4.584;2023-04-12T09:45:20;7.20;;;2.75;;
37781;SDS011;23621;50.878;4.584;2023-04-12T09:47:50;5.82;;;2.38;;
37781;SDS011;23621;50.878;4.584;2023-04-12T09:50:18;6.68;;;2.33;;
37781;SDS011;23621;50.878;4.584;2023-04-12T09:52:56;7.47;;;2.55;;
37781;SDS011;23621;50.878;4.584;2023-04-12T09:55:24;5.55;;;2.30;;
37781;SDS011;23621;50.878;4.584;2023-04-12T09:57:53;8.27;;;3.38;;
37781;SDS011;23621;50.878;4.584;2023-04-12T10:00:21;9.00;;;2.60;;
37781;SDS011;23621;50.878;4.584;2023-04-12T10:02:51;8.57;;;2.80;;
37781;SDS011;23621;50.878;4.584;2023-04-12T10:05:20;7.75;;;2.50;;
37781;SDS011;23621;50.878;4.584;2023-04-12T10:07:55;7.63;;;2.33;;
37781;SDS011;23621;50.878;4.584;2023-04-12T10:10:23;6.55;;;2.53;;
37781;SDS011;23621;50.878;4.584;2023-04-12T10:12:51;6.25;;;2.55;;
37781;SDS011;23621;50.878;4.584;2023-04-12T10:15:18;7.15;;;2.63;;
37781;SDS011;23621;50.878;4.584;2023-04-12T10:17:48;8.18;;;2.40;;
37781;SDS011;23621;50.878;4.584;2023-04-12T10:20:19;8.02;;;2.70;;
37781;SDS011;23621;50.878;4.584;2023-04-12T10:22:52;8.40;;;2.92;;
37781;SDS011;23621;50.878;4.584;2023-04-12T10:25:20;6.95;;;2.40;;
37781;SDS011;23621;50.878;4.584;2023-04-12T10:27:49;5.30;;;2.70;;
37781;SDS011;23621;50.878;4.584;2023-04-12T10:30:26;3.83;;;2.53;;
37781;SDS011;23621;50.878;4.584;2023-04-12T10:38:18;4.65;;;2.35;;
37781;SDS011;23621;50.878;4.584;2023-04-12T10:41:09;5.22;;;2.70;;
37781;SDS011;23621;50.878;4.584;2023-04-12T10:43:33;3.80;;;2.63;;
37781;SDS011;23621;50.878;4.584;2023-04-12T10:46:00;6.90;;;2.85;;
37781;SDS011;23621;50.878;4.584;2023-04-12T10:48:38;5.22;;;3.08;;
37781;SDS011;23621;50.878;4.584;2023-04-12T10:51:17;4.63;;;2.53;;
37781;SDS011;23621;50.878;4.584;2023-04-12T10:53:52;5.72;;;2.28;;
37781;SDS011;23621;50.878;4.584;2023-04-12T10:56:40;3.97;;;2.35;;
37781;SDS011;23621;50.878;4.584;2023-04-12T10:59:08;8.00;;;2.90;;
37781;SDS011;23621;50.878;4.584;2023-04-12T11:01:36;5.13;;;3.00;;
37781;SDS011;23621;50.878;4.584;2023-04-12T11:04:05;6.50;;;3.28;;
37781;SDS011;23621;50.878;4.584;2023-04-12T11:09:29;4.60;;;2.83;;
37781;SDS011;23621;50.878;4.584;2023-04-12T11:12:14;11.13;;;3.90;;
37781;SDS011;23621;50.878;4.584;2023-04-12T11:14:43;4.75;;;2.72;;
37781;SDS011;23621;50.878;4.584;2023-04-12T11:19:43;4.95;;;2.45;;
37781;SDS011;23621;50.878;4.584;2023-04-12T11:22:15;6.30;;;2.50;;
37781;SDS011;23621;50.878;4.584;2023-04-12T11:24:44;7.13;;;2.17;;
37781;SDS011;23621;50.878;4.584;2023-04-12T11:27:13;6.65;;;2.17;;
37781;SDS011;23621;50.878;4.584;2023-04-12T11:29:43;4.68;;;2.10;;
37781;SDS011;23621;50.878;4.584;2023-04-12T11:32:13;6.78;;;2.70;;
37781;SDS011;23621;50.878;4.584;2023-04-12T11:34:41;10.18;;;2.65;;
37781;SDS011;23621;50.878;4.584;2023-04-12T11:37:10;5.78;;;2.90;;
37781;SDS011;23621;50.878;4.584;2023-04-12T11:39:38;6.68;;;2.42;;
37781;SDS011;23621;50.878;4.584;2023-04-12T11:42:11;7.68;;;2.83;;
37781;SDS011;23621;50.878;4.584;2023-04-12T11:44:41;6.05;;;2.42;;
37781;SDS011;23621;50.878;4.584;2023-04-12T11:47:18;7.15;;;2.75;;
37781;SDS011;23621;50.878;4.584;2023-04-12T11:49:51;5.15;;;2.10;;
37781;SDS011;23621;50.878;4.584;2023-04-12T11:52:18;8.10;;;2.53;;
37781;SDS011;23621;50.878;4.584;2023-04-12T11:54:47;3.85;;;2.03;;
37781;SDS011;23621;50.878;4.584;2023-04-12T11:57:17;5.53;;;2.10;;
37781;SDS011;23621;50.878;4.584;2023-04-12T11:59:45;4.57;;;2.15;;
37781;SDS011;23621;50.878;4.584;2023-04-12T12:02:16;4.65;;;2.10;;
37781;SDS011;23621;50.878;4.584;2023-04-12T12:04:49;2.72;;;1.33;;
37781;SDS011;23621;50.878;4.584;2023-04-12T12:07:17;4.35;;;1.65;;
37781;SDS011;23621;50.878;4.584;2023-04-12T12:09:47;4.90;;;1.98;;
37781;SDS011;23621;50.878;4.584;2023-04-12T12:12:15;4.32;;;1.60;;
37781;SDS011;23621;50.878;4.584;2023-04-12T12:14:44;3.95;;;1.52;;
37781;SDS011;23621;50.878;4.584;2023-04-12T12:17:15;1.95;;;1.15;;
37781;SDS011;23621;50.878;4.584;2023-04-12T12:19:43;3.90;;;1.42;;
37781;SDS011;23621;50.878;4.584;2023-04-12T12:27:21;1.90;;;1.23;;
37781;SDS011;23621;50.878;4.584;2023-04-12T12:30:07;4.53;;;1.75;;
37781;SDS011;23621;50.878;4.584;2023-04-12T12:32:36;1.15;;;0.95;;
37781;SDS011;23621;50.878;4.584;2023-04-12T12:35:08;2.00;;;1.20;;
37781;SDS011;23621;50.878;4.584;2023-04-12T12:37:36;1.40;;;1.30;;
37781;SDS011;23621;50.878;4.584;2023-04-12T12:40:04;2.90;;;1.40;;
37781;SDS011;23621;50.878;4.584;2023-04-12T12:42:51;2.45;;;1.45;;
37781;SDS011;23621;50.878;4.584;2023-04-12T12:45:26;3.25;;;1.48;;
37781;SDS011;23621;50.878;4.584;2023-04-12T12:47:56;3.88;;;1.63;;
37781;SDS011;23621;50.878;4.584;2023-04-12T12:50:31;2.70;;;1.52;;
37781;SDS011;23621;50.878;4.584;2023-04-12T12:52:59;3.03;;;1.67;;
37781;SDS011;23621;50.878;4.584;2023-04-12T12:55:27;2.00;;;1.30;;
37781;SDS011;23621;50.878;4.584;2023-04-12T12:57:56;3.03;;;1.90;;
37781;SDS011;23621;50.878;4.584;2023-04-12T13:00:27;4.93;;;1.65;;
37781;SDS011;23621;50.878;4.584;2023-04-12T13:02:55;1.40;;;1.30;;
37781;SDS011;23621;50.878;4.584;2023-04-12T13:05:22;2.55;;;1.60;;
37781;SDS011;23621;50.878;4.584;2023-04-12T13:07:49;1.67;;;1.40;;
37781;SDS011;23621;50.878;4.584;2023-04-12T13:10:16;2.45;;;1.60;;
37781;SDS011;23621;50.878;4.584;2023-04-12T13:12:43;3.85;;;1.30;;
37781;SDS011;23621;50.878;4.584;2023-04-12T13:15:11;3.83;;;1.50;;
37781;SDS011;23621;50.878;4.584;2023-04-12T13:17:52;1.75;;;1.40;;
37781;SDS011;23621;50.878;4.584;2023-04-12T13:20:20;2.05;;;1.33;;
37781;SDS011;23621;50.878;4.584;2023-04-12T13:22:48;3.33;;;1.58;;
37781;SDS011;23621;50.878;4.584;2023-04-12T13:25:16;3.50;;;1.65;;
37781;SDS011;23621;50.878;4.584;2023-04-12T13:27:47;4.60;;;1.40;;
37781;SDS011;23621;50.878;4.584;2023-04-12T13:30:14;2.55;;;1.40;;
37781;SDS011;23621;50.878;4.584;2023-04-12T13:32:41;3.45;;;1.30;;
37781;SDS011;23621;50.878;4.584;2023-04-12T13:35:10;2.17;;;1.20;;
37781;SDS011;23621;50.878;4.584;2023-04-12T13:37:37;3.38;;;1.50;;
37781;SDS011;23621;50.878;4.584;2023-04-12T13:40:04;3.05;;;1.38;;
37781;SDS011;23621;50.878;4.584;2023-04-12T13:42:32;3.10;;;1.48;;
37781;SDS011;23621;50.878;4.584;2023-04-12T13:44:59;2.70;;;1.30;;
37781;SDS011;23621;50.878;4.584;2023-04-12T13:47:26;1.75;;;1.40;;
37781;SDS011;23621;50.878;4.584;2023-04-12T13:49:53;2.22;;;1.13;;
37781;SDS011;23621;50.878;4.584;2023-04-12T13:52:20;1.27;;;1.15;;
37781;SDS011;23621;50.878;4.584;2023-04-12T13:54:47;1.92;;;1.00;;
37781;SDS011;23621;50.878;4.584;2023-04-12T13:57:16;3.03;;;1.10;;
37781;SDS011;23621;50.878;4.584;2023-04-12T13:59:43;1.52;;;1.10;;
37781;SDS011;23621;50.878;4.584;2023-04-12T14:02:10;1.92;;;1.20;;
37781;SDS011;23621;50.878;4.584;2023-04-12T14:04:47;2.08;;;1.23;;
37781;SDS011;23621;50.878;4.584;2023-04-12T14:07:19;4.00;;;1.30;;
37781;SDS011;23621;50.878;4.584;2023-04-12T14:09:46;4.55;;;1.40;;
37781;SDS011;23621;50.878;4.584;2023-04-12T14:12:14;1.83;;;1.40;;
37781;SDS011;23621;50.878;4.584;2023-04-12T14:14:41;2.08;;;1.33;;
37781;SDS011;23621;50.878;4.584;2023-04-12T14:17:08;1.52;;;1.10;;
37781;SDS011;23621;50.878;4.584;2023-04-12T14:19:35;2.08;;;1.20;;
37781;SDS011;23621;50.878;4.584;2023-04-12T14:22:02;1.85;;;1.42;;
37781;SDS011;23621;50.878;4.584;2023-04-12T14:24:29;2.38;;;1.00;;
37781;SDS011;23621;50.878;4.584;2023-04-12T14:26:57;2.20;;;1.13;;
37781;SDS011;23621;50.878;4.584;2023-04-12T14:29:26;3.05;;;1.27;;
37781;SDS011;23621;50.878;4.584;2023-04-12T14:31:55;3.90;;;1.40;;
37781;SDS011;23621;50.878;4.584;2023-04-12T14:34:22;2.05;;;1.50;;
37781;SDS011;23621;50.878;4.584;2023-04-12T14:36:49;3.05;;;1.17;;
37781;SDS011;23621;50.878;4.584;2023-04-12T14:39:16;3.05;;;1.05;;
37781;SDS011;23621;50.878;4.584;2023-04-12T14:41:43;4.38;;;1.20;;
37781;SDS011;23621;50.878;4.584;2023-04-12T14:44:10;1.95;;;1.20;;
37781;SDS011;23621;50.878;4.584;2023-04-12T14:46:37;1.70;;;1.27;;
37781;SDS011;23621;50.878;4.584;2023-04-12T14:49:05;2.35;;;1.05;;
37781;SDS011;23621;50.878;4.584;2023-04-12T14:51:32;3.25;;;1.20;;
37781;SDS011;23621;50.878;4.584;2023-04-12T14:53:59;2.45;;;1.40;;
37781;SDS011;23621;50.878;4.584;2023-04-12T14:56:26;1.20;;;1.10;;
37781;SDS011;23621;50.878;4.584;2023-04-12T14:58:56;1.52;;;1.13;;
37781;SDS011;23621;50.878;4.584;2023-04-12T15:01:24;2.88;;;1.30;;
37781;SDS011;23621;50.878;4.584;2023-04-12T15:03:52;3.08;;;1.27;;
37781;SDS011;23621;50.878;4.584;2023-04-12T15:06:21;2.42;;;1.30;;
37781;SDS011;23621;50.878;4.584;2023-04-12T15:08:49;1.20;;;1.10;;
37781;SDS011;23621;50.878;4.584;2023-04-12T15:11:20;1.58;;;1.30;;
37781;SDS011;23621;50.878;4.584;2023-04-12T15:13:52;2.10;;;1.30;;
37781;SDS011;23621;50.878;4.584;2023-04-12T15:16:20;3.35;;;1.50;;
37781;SDS011;23621;50.878;4.584;2023-04-12T15:18:48;4.15;;;1.58;;
37781;SDS011;23621;50.878;4.584;2023-04-12T15:21:16;2.25;;;1.50;;
37781;SDS011;23621;50.878;4.584;2023-04-12T15:23:44;2.08;;;1.40;;
37781;SDS011;23621;50.878;4.584;2023-04-12T15:26:11;3.15;;;1.85;;
37781;SDS011;23621;50.878;4.584;2023-04-12T15:28:40;2.88;;;2.20;;
37781;SDS011;23621;50.878;4.584;2023-04-12T15:31:08;2.00;;;1.75;;
37781;SDS011;23621;50.878;4.584;2023-04-12T15:33:37;2.05;;;1.48;;